Time;durP1;ratioP1;P1;durP2;ratioP2;P2;SDS_P1;SDS_P2;PMS_P1;PMS_P2;Temp;Humidity;BMP_temperature;BMP_pressure;BME280_temperature;BME280_humidity;BME280_pressure;Samples;Min_cycle;Max_cycle;Signal;HPM_P1;HPM_P2
2024/03/20 00:00:27;;;;;;;3.38;2.85;;;;;;;4.17;100.00;93233.06;2098482;28;20036;-84
2024/03/20 00:01:29;;;;;;;4.28;2.30;;;;;;;4.19;100.00;93228.19;2090568;28;20020;-86
2024/03/20 00:02:30;;;;;;;3.53;2.72;;;;;;;4.24;100.00;93225.94;2090552;28;20474;-84
2024/03/20 00:03:31;;;;;;;3.20;2.80;;;;;;;4.29;100.00;93225.56;2090288;28;20182;-85
2024/03/20 00:04:32;;;;;;;3.35;2.58;;;;;;;4.25;100.00;93224.78;2106872;28;20036;-85
2024/03/20 00:05:33;;;;;;;3.00;2.60;;;;;;;4.28;100.00;93223.31;2115117;28;20070;-83
2024/03/20 00:06:34;;;;;;;4.60;2.63;;;;;;;4.23;100.00;93229.72;2094494;28;20032;-83
2024/03/20 00:07:35;;;;;;;3.58;2.50;;;;;;;4.27;100.00;93219.91;2085063;28;20063;-82
2024/03/20 00:08:36;;;;;;;3.78;2.65;;;;;;;4.31;100.00;93224.47;2072527;28;20025;-84
2024/03/20 00:09:37;;;;;;;3.08;2.78;;;;;;;4.19;100.00;93222.91;2021799;28;21060;-86
2024/03/20 00:10:38;;;;;;;3.28;2.60;;;;;;;4.22;100.00;93216.88;2025647;28;20329;-84
2024/03/20 00:11:39;;;;;;;4.07;2.72;;;;;;;4.17;100.00;93220.63;2039771;27;20039;-85
2024/03/20 00:12:41;;;;;;;2.67;2.47;;;;;;;4.12;100.00;93225.50;2046978;27;20371;-84
2024/03/20 00:13:42;;;;;;;2.78;2.30;;;;;;;4.04;100.00;93222.09;2033918;28;20103;-82
2024/03/20 00:14:43;;;;;;;2.80;2.60;;;;;;;4.15;100.00;93222.13;2035712;28;20068;-81
2024/03/20 00:15:44;;;;;;;3.17;2.75;;;;;;;4.23;100.00;93218.38;2080817;28;20027;-84
2024/03/20 00:16:45;;;;;;;3.13;2.20;;;;;;;4.19;100.00;93215.72;2063805;28;20063;-82
2024/03/20 00:17:49;;;;;;;2.97;2.40;;;;;;;4.14;100.00;93223.25;2013383;28;21961;-82
2024/03/20 00:18:50;;;;;;;3.78;2.65;;;;;;;4.08;100.00;93219.44;2020872;28;20032;-84
2024/03/20 00:19:51;;;;;;;3.42;2.92;;;;;;;4.03;100.00;93223.94;2028279;28;20031;-83
2024/03/20 00:20:52;;;;;;;5.00;2.42;;;;;;;3.96;100.00;93217.88;2043374;28;22873;-85
2024/03/20 00:21:54;;;;;;;2.72;2.53;;;;;;;4.05;100.00;93210.38;2039838;28;20117;-84
2024/03/20 00:22:54;;;;;;;4.05;2.92;;;;;;;4.09;100.00;93220.97;2042246;28;20213;-81
2024/03/20 00:23:56;;;;;;;3.50;2.72;;;;;;;4.05;100.00;93215.66;2044642;28;20722;-84
2024/03/20 00:24:57;;;;;;;3.22;2.90;;;;;;;4.08;100.00;93214.16;2051314;28;20074;-81
2024/03/20 00:26:00;;;;;;;3.30;2.33;;;;;;;3.88;100.00;93221.63;2055711;28;20079;-84
2024/03/20 00:27:01;;;;;;;4.13;2.55;;;;;;;3.97;100.00;93220.16;2070496;27;20063;-83
2024/03/20 00:28:02;;;;;;;4.03;2.65;;;;;;;3.94;100.00;93217.50;2076512;28;20115;-84
2024/03/20 00:29:03;;;;;;;3.50;2.70;;;;;;;3.89;100.00;93210.66;2078096;28;20132;-83
2024/03/20 00:30:04;;;;;;;3.03;2.60;;;;;;;3.96;100.00;93213.34;2090904;28;20031;-81
2024/03/20 00:31:05;;;;;;;3.63;2.20;;;;;;;3.88;100.00;93213.69;2096727;28;20035;-86
2024/03/20 00:32:07;;;;;;;3.20;2.50;;;;;;;3.79;100.00;93220.06;2100118;28;20028;-81
2024/03/20 00:33:08;;;;;;;3.10;2.45;;;;;;;3.89;100.00;93209.91;2090118;28;20466;-85
2024/03/20 00:34:09;;;;;;;2.70;2.50;;;;;;;3.91;100.00;93207.66;2098207;28;20032;-85
2024/03/20 00:35:10;;;;;;;3.10;2.58;;;;;;;3.82;100.00;93210.66;2098332;28;20082;-85
2024/03/20 00:36:11;;;;;;;4.20;2.70;;;;;;;3.82;100.00;93205.34;2098254;28;20020;-84
2024/03/20 00:37:12;;;;;;;2.28;2.08;;;;;;;3.88;100.00;93211.03;2089979;28;20029;-84
2024/03/20 00:38:13;;;;;;;3.88;2.60;;;;;;;3.84;100.00;93208.38;2098162;28;20021;-82
2024/03/20 00:39:14;;;;;;;2.60;2.40;;;;;;;3.88;100.00;93203.13;2098180;28;20111;-86
2024/03/20 00:40:15;;;;;;;4.82;2.22;;;;;;;3.96;100.00;93197.50;2098182;28;20119;-85
2024/03/20 00:41:16;;;;;;;2.78;2.42;;;;;;;3.79;100.00;93208.72;2098257;28;20028;-85
2024/03/20 00:42:17;;;;;;;2.53;2.33;;;;;;;3.84;100.00;93204.97;2098270;28;20683;-84
2024/03/20 00:43:18;;;;;;;4.28;2.60;;;;;;;3.89;100.00;93199.34;2089788;28;20029;-84
2024/03/20 00:44:19;;;;;;;2.95;2.60;;;;;;;3.74;100.00;93203.81;2089889;28;20033;-85
2024/03/20 00:45:20;;;;;;;2.28;2.08;;;;;;;3.78;100.00;93207.22;2098039;28;20083;-84
2024/03/20 00:46:21;;;;;;;2.55;2.35;;;;;;;3.90;100.00;93201.59;2098164;28;20028;-82
2024/03/20 00:47:22;;;;;;;2.25;2.05;;;;;;;3.81;100.00;93205.72;2089006;28;20060;-82
2024/03/20 00:48:23;;;;;;;3.22;2.20;;;;;;;3.75;100.00;93202.66;2097820;28;20024;-84
2024/03/20 00:49:24;;;;;;;2.60;2.40;;;;;;;3.76;100.00;93204.19;2106383;28;20468;-84
2024/03/20 00:50:25;;;;;;;4.65;2.70;;;;;;;3.69;100.00;93198.88;2098051;28;20477;-86
2024/03/20 00:51:25;;;;;;;2.42;2.10;;;;;;;3.73;100.00;93208.34;2089708;28;20029;-83
2024/03/20 00:52:27;;;;;;;4.60;2.40;;;;;;;3.67;100.00;93199.22;2089738;28;20124;-83
2024/03/20 00:53:28;;;;;;;2.92;2.30;;;;;;;3.68;100.00;93197.34;2097865;28;20016;-86
2024/03/20 00:54:29;;;;;;;3.05;2.55;;;;;;;3.54;100.00;93209.34;2097733;28;20043;-85
2024/03/20 00:55:29;;;;;;;4.68;2.30;;;;;;;3.65;100.00;93198.84;2097878;28;20047;-84
2024/03/20 00:56:30;;;;;;;2.90;2.63;;;;;;;3.69;100.00;93198.88;2097989;28;20083;-85
2024/03/20 00:57:31;;;;;;;2.90;2.35;;;;;;;3.73;100.00;93204.91;2106128;28;20028;-82
2024/03/20 00:58:32;;;;;;;2.72;1.92;;;;;;;3.72;100.00;93198.13;2106178;28;20035;-82
2024/03/20 00:59:34;;;;;;;2.88;2.60;;;;;;;3.78;100.00;93201.94;2089760;28;20457;-82
2024/03/20 01:00:35;;;;;;;4.22;2.30;;;;;;;3.67;100.00;93196.56;2089550;28;20470;-83
2024/03/20 01:01:36;;;;;;;2.85;2.65;;;;;;;3.52;100.00;93195.00;2097956;28;20028;-82
2024/03/20 01:02:37;;;;;;;3.80;2.50;;;;;;;3.57;100.00;93194.66;2106071;28;20061;-83
2024/03/20 01:03:38;;;;;;;2.30;2.10;;;;;;;3.51;100.00;93196.88;2106236;28;20020;-85
2024/03/20 01:04:39;;;;;;;3.08;2.50;;;;;;;3.63;100.00;93195.81;2089826;28;20067;-84
2024/03/20 01:05:46;;;;;;;2.75;2.25;;;;;;;3.70;100.00;93187.91;2098038;28;20028;-83
2024/03/20 01:06:47;;;;;;;3.08;2.35;;;;;;;3.65;100.00;93195.44;2090015;28;20029;-82
2024/03/20 01:07:48;;;;;;;4.25;2.40;;;;;;;3.75;100.00;93197.38;2097434;28;20086;-84
2024/03/20 01:08:49;;;;;;;2.60;2.30;;;;;;;3.75;100.00;93194.75;2097889;28;20027;-84
2024/03/20 01:09:50;;;;;;;2.88;2.30;;;;;;;3.73;100.00;93195.13;2093945;28;20090;-84
2024/03/20 01:10:51;;;;;;;4.28;2.42;;;;;;;3.66;100.00;93195.06;2089889;28;20025;-87
2024/03/20 01:11:52;;;;;;;2.90;2.50;;;;;;;3.51;100.00;93185.53;2098136;28;20029;-81
2024/03/20 01:12:53;;;;;;;3.13;2.20;;;;;;;3.42;100.00;93190.38;2097794;28;21112;-85
2024/03/20 01:13:54;;;;;;;2.55;2.35;;;;;;;3.34;100.00;93188.84;2097682;28;20111;-84
2024/03/20 01:14:55;;;;;;;3.13;2.20;;;;;;;3.35;100.00;93185.81;2097832;28;20086;-84
2024/03/20 01:15:56;;;;;;;3.30;2.20;;;;;;;3.43;100.00;93194.56;2097760;28;20074;-82
2024/03/20 01:16:57;;;;;;;3.88;2.20;;;;;;;3.47;100.00;93187.41;2097091;28;20444;-82
2024/03/20 01:17:58;;;;;;;3.70;2.20;;;;;;;3.46;100.00;93188.53;2092889;28;20083;-84
2024/03/20 01:18:59;;;;;;;2.78;2.45;;;;;;;3.41;100.00;93187.00;2106796;28;20111;-84
2024/03/20 01:20:03;;;;;;;2.30;2.10;;;;;;;3.38;100.00;93185.09;2098884;28;20024;-82
2024/03/20 01:21:05;;;;;;;5.72;2.58;;;;;;;3.46;100.00;93197.19;2094932;28;20485;-84
2024/03/20 01:22:06;;;;;;;3.00;2.10;;;;;;;3.48;100.00;93194.97;2099343;28;20055;-82
2024/03/20 01:23:07;;;;;;;2.75;1.90;;;;;;;3.40;100.00;93190.00;2090956;28;20040;-83
2024/03/20 01:24:08;;;;;;;4.63;2.55;;;;;;;3.41;100.00;93194.16;2098935;28;20036;-83
2024/03/20 01:25:09;;;;;;;2.72;2.30;;;;;;;3.42;100.00;93190.38;2099064;28;20040;-84
2024/03/20 01:26:10;;;;;;;2.78;2.22;;;;;;;3.22;100.00;93195.94;2102015;28;20102;-83
2024/03/20 01:27:11;;;;;;;3.03;2.72;;;;;;;3.24;100.00;93187.63;2098152;28;20056;-84
2024/03/20 01:28:12;;;;;;;2.85;2.10;;;;;;;3.19;100.00;93185.34;2097458;28;20111;-83
2024/03/20 01:29:13;;;;;;;2.55;2.22;;;;;;;3.35;100.00;93187.72;2097395;28;20167;-83
2024/03/20 01:30:15;;;;;;;7.50;2.35;;;;;;;3.30;100.00;93188.06;2097757;28;20024;-84
2024/03/20 01:31:16;;;;;;;3.35;2.35;;;;;;;3.30;100.00;93182.78;2114504;28;20028;-83
2024/03/20 01:32:17;;;;;;;2.63;2.22;;;;;;;3.32;100.00;93191.09;2106131;28;20027;-84
2024/03/20 01:33:18;;;;;;;4.28;2.15;;;;;;;3.11;100.00;93181.13;2097659;28;20028;-85
2024/03/20 01:34:18;;;;;;;4.07;2.38;;;;;;;3.26;100.00;93188.78;2097700;28;20578;-82
2024/03/20 01:35:19;;;;;;;2.60;2.40;;;;;;;3.28;100.00;93183.13;2097611;28;20051;-83
2024/03/20 01:36:21;;;;;;;2.97;2.47;;;;;;;3.36;100.00;93186.59;2106129;28;20028;-86
2024/03/20 01:37:22;;;;;;;2.60;2.25;;;;;;;3.15;100.00;93187.94;2105892;28;20039;-83
2024/03/20 01:38:24;;;;;;;2.22;2.00;;;;;;;3.27;100.00;93181.63;2097563;28;20048;-84
2024/03/20 01:39:25;;;;;;;2.40;2.20;;;;;;;3.23;100.00;93181.59;2097822;28;20024;-85
2024/03/20 01:40:26;;;;;;;3.83;2.35;;;;;;;3.20;100.00;93181.56;2106095;28;20731;-83
2024/03/20 01:41:27;;;;;;;2.50;2.30;;;;;;;3.30;100.00;93182.78;2097736;28;20035;-84
2024/03/20 01:42:28;;;;;;;2.30;2.05;;;;;;;3.23;100.00;93186.13;2089410;28;20540;-82
2024/03/20 01:43:29;;;;;;;2.45;2.25;;;;;;;3.24;100.00;93182.34;2097736;28;20047;-82
2024/03/20 01:44:30;;;;;;;2.22;1.95;;;;;;;3.31;100.00;93185.03;2097462;28;20020;-82
2024/03/20 01:45:31;;;;;;;2.97;2.00;;;;;;;3.38;100.00;93185.09;2097667;28;20027;-84
2024/03/20 01:46:34;;;;;;;2.20;2.10;;;;;;;3.37;100.00;93183.56;2097880;28;20024;-85
2024/03/20 01:47:35;;;;;;;2.58;2.17;;;;;;;3.27;100.00;93184.25;2101765;28;20020;-85
2024/03/20 01:48:36;;;;;;;3.75;2.33;;;;;;;3.36;100.00;93183.94;2099802;28;20039;-83
2024/03/20 01:49:37;;;;;;;2.90;2.20;;;;;;;3.31;100.00;93181.66;2097565;28;20040;-84
2024/03/20 01:50:38;;;;;;;3.28;2.25;;;;;;;3.18;100.00;93176.66;2097793;28;20101;-84
2024/03/20 01:51:42;;;;;;;2.83;2.08;;;;;;;3.33;100.00;93184.66;2105843;28;20521;-81
2024/03/20 01:52:54;;;;;;;2.30;2.10;;;;;;;3.25;100.00;93179.34;2097850;28;20025;-84
2024/03/20 01:53:56;;;;;;;3.08;2.10;;;;;;;3.15;100.00;93187.19;2092332;28;20034;-82
2024/03/20 01:54:58;;;;;;;3.00;2.35;;;;;;;3.19;100.00;93178.16;2089417;28;20501;-85
2024/03/20 01:55:59;;;;;;;2.45;2.00;;;;;;;3.22;100.00;93176.69;2097536;28;20107;-83
2024/03/20 01:57:00;;;;;;;1.92;1.77;;;;;;;3.24;100.00;93179.69;2105909;28;20023;-84
2024/03/20 01:58:01;;;;;;;4.07;2.38;;;;;;;3.34;100.00;93181.69;2097264;28;20016;-82
2024/03/20 01:59:02;;;;;;;2.22;1.95;;;;;;;3.29;100.00;93184.63;2089442;28;20031;-85
2024/03/20 02:00:04;;;;;;;3.63;2.50;;;;;;;3.36;100.00;93182.06;2097921;28;20451;-81
2024/03/20 02:01:05;;;;;;;2.40;2.20;;;;;;;3.32;100.00;93177.88;2089559;28;20029;-85
2024/03/20 02:02:06;;;;;;;2.42;2.22;;;;;;;3.19;100.00;93177.41;2097782;28;20378;-86
2024/03/20 02:03:07;;;;;;;2.35;2.00;;;;;;;3.09;100.00;93181.50;2097516;28;20479;-83
2024/03/20 02:04:08;;;;;;;2.22;2.00;;;;;;;3.14;100.00;93181.16;2105973;28;20028;-84
2024/03/20 02:05:09;;;;;;;2.95;2.05;;;;;;;3.20;100.00;93178.91;2105832;28;20024;-85
2024/03/20 02:06:25;;;;;;;2.30;2.10;;;;;;;3.17;100.00;93175.16;2097775;28;20029;-82
2024/03/20 02:07:26;;;;;;;4.05;2.38;;;;;;;3.22;100.00;93180.09;2108287;28;20107;-84
2024/03/20 02:08:27;;;;;;;2.47;2.25;;;;;;;3.17;100.00;93180.44;2114153;28;20028;-84
2024/03/20 02:09:28;;;;;;;2.88;2.15;;;;;;;3.27;100.00;93184.25;2105876;28;20506;-85
2024/03/20 02:10:29;;;;;;;2.58;1.92;;;;;;;3.29;100.00;93174.06;2105844;28;20103;-83
2024/03/20 02:11:31;;;;;;;2.28;2.08;;;;;;;3.21;100.00;93175.16;2089376;28;20036;-84
2024/03/20 02:12:32;;;;;;;2.38;1.92;;;;;;;3.14;100.00;93175.13;2097797;28;20062;-83
2024/03/20 02:13:33;;;;;;;3.47;1.98;;;;;;;3.08;100.00;93181.88;2097582;28;20055;-83
2024/03/20 02:14:38;;;;;;;2.85;1.88;;;;;;;3.01;100.00;93180.69;2097457;28;20032;-81
2024/03/20 02:15:39;;;;;;;2.90;2.05;;;;;;;2.99;100.00;93180.28;2098387;28;20025;-83
2024/03/20 02:16:40;;;;;;;1.98;1.80;;;;;;;3.10;100.00;93182.25;2089238;28;20243;-86
2024/03/20 02:17:41;;;;;;;2.53;2.03;;;;;;;3.06;100.00;93181.47;2096963;28;20047;-85
2024/03/20 02:18:43;;;;;;;2.40;2.05;;;;;;;2.97;100.00;93179.13;2097448;28;20099;-82
2024/03/20 02:19:44;;;;;;;2.38;1.92;;;;;;;2.90;100.00;93181.72;2097516;28;20058;-84
2024/03/20 02:20:45;;;;;;;2.92;2.28;;;;;;;2.96;100.00;93180.25;2089343;28;20079;-85
2024/03/20 02:21:46;;;;;;;3.38;2.30;;;;;;;2.97;100.00;93177.25;2105886;28;20098;-84
2024/03/20 02:22:47;;;;;;;2.10;1.90;;;;;;;2.90;100.00;93184.38;2100391;28;20034;-83
2024/03/20 02:23:49;;;;;;;3.15;1.88;;;;;;;2.94;100.00;93178.00;2089118;28;20409;-84
2024/03/20 02:24:50;;;;;;;2.22;2.03;;;;;;;2.89;100.00;93183.59;2093129;28;20036;-83
2024/03/20 02:25:51;;;;;;;2.35;1.50;;;;;;;2.92;100.00;93182.88;2097488;28;20025;-85
2024/03/20 02:26:52;;;;;;;2.95;2.17;;;;;;;2.85;100.00;93184.69;2101741;28;20075;-82
2024/03/20 02:27:53;;;;;;;2.20;2.00;;;;;;;2.84;100.00;93186.56;2114073;28;20448;-82
2024/03/20 02:28:54;;;;;;;2.20;2.00;;;;;;;2.92;100.00;93180.22;2097099;28;20071;-83
2024/03/20 02:29:55;;;;;;;4.63;2.13;;;;;;;2.96;100.00;93185.53;2097274;28;20021;-85
2024/03/20 02:30:56;;;;;;;2.20;1.98;;;;;;;3.00;100.00;93181.06;2105456;28;20074;-84
2024/03/20 02:31:57;;;;;;;2.17;1.95;;;;;;;3.03;100.00;93178.44;2080888;28;20094;-82
2024/03/20 02:32:58;;;;;;;1.85;1.75;;;;;;;2.99;100.00;93185.56;2080824;28;20022;-82
2024/03/20 02:33:59;;;;;;;2.38;1.85;;;;;;;2.92;100.00;93188.16;2088933;28;20021;-85
2024/03/20 02:35:00;;;;;;;2.70;1.90;;;;;;;2.92;100.00;93176.84;2105627;28;20069;-84
2024/03/20 02:36:03;;;;;;;2.63;2.42;;;;;;;2.93;100.00;93178.34;2097410;28;20625;-84
2024/03/20 02:37:04;;;;;;;2.55;2.03;;;;;;;2.94;100.00;93185.13;2089586;28;20029;-83
2024/03/20 02:38:05;;;;;;;2.25;1.95;;;;;;;2.98;100.00;93180.66;2097333;28;20044;-84
2024/03/20 02:39:06;;;;;;;1.90;1.80;;;;;;;2.83;100.00;93182.41;2088874;28;20021;-83
2024/03/20 02:40:07;;;;;;;1.95;1.80;;;;;;;2.90;100.00;93184.38;2088745;28;20025;-86
2024/03/20 02:41:10;;;;;;;3.35;2.13;;;;;;;2.85;100.00;93180.16;2097229;28;20025;-85
2024/03/20 02:42:11;;;;;;;4.13;2.08;;;;;;;2.84;100.00;93181.28;2097381;28;20025;-82
2024/03/20 02:43:12;;;;;;;3.80;2.30;;;;;;;2.86;100.00;93178.31;2097327;28;20488;-84
2024/03/20 02:44:14;;;;;;;2.20;2.00;;;;;;;2.83;100.00;93179.03;2097131;28;20430;-82
2024/03/20 02:45:15;;;;;;;3.25;1.80;;;;;;;2.90;100.00;93179.84;2097231;28;20029;-83
2024/03/20 02:46:16;;;;;;;3.08;1.80;;;;;;;2.86;100.00;93176.41;2080874;28;20026;-85
2024/03/20 02:47:18;;;;;;;3.22;1.52;;;;;;;2.88;100.00;93184.72;2096424;28;20082;-83
2024/03/20 02:48:19;;;;;;;2.50;1.88;;;;;;;2.76;100.00;93179.72;2094899;28;20027;-83
2024/03/20 02:49:20;;;;;;;3.83;1.92;;;;;;;2.87;100.00;93177.19;2097200;28;20107;-83
2024/03/20 02:50:20;;;;;;;1.77;1.58;;;;;;;2.87;100.00;93177.94;2088940;28;20509;-84
2024/03/20 02:51:24;;;;;;;2.55;1.85;;;;;;;2.99;100.00;93182.19;2089360;28;20063;-82
2024/03/20 02:52:25;;;;;;;3.30;1.77;;;;;;;3.01;100.00;93183.31;2092201;28;20125;-84
2024/03/20 02:53:26;;;;;;;1.92;1.75;;;;;;;2.95;100.00;93176.88;2105621;28;20050;-85
2024/03/20 02:54:27;;;;;;;1.98;1.65;;;;;;;2.98;100.00;93188.56;2105480;28;20112;-82
2024/03/20 02:55:28;;;;;;;3.75;1.80;;;;;;;3.05;100.00;93183.34;2088896;28;20021;-84
2024/03/20 02:56:29;;;;;;;1.90;1.70;;;;;;;3.02;100.00;93182.19;2088806;28;20040;-85
2024/03/20 02:57:30;;;;;;;1.75;1.65;;;;;;;2.99;100.00;93187.47;2097072;28;20048;-82
2024/03/20 02:58:31;;;;;;;1.92;1.60;;;;;;;2.87;100.00;93180.56;2098665;28;20086;-84
2024/03/20 02:59:32;;;;;;;3.47;1.90;;;;;;;3.02;100.00;93184.81;2097097;28;20078;-82
2024/03/20 03:00:33;;;;;;;1.73;1.60;;;;;;;2.88;100.00;93186.59;2099035;28;20831;-86
2024/03/20 03:01:35;;;;;;;3.65;1.80;;;;;;;2.92;100.00;93187.41;2105467;28;20020;-83
2024/03/20 03:02:36;;;;;;;2.53;1.70;;;;;;;2.89;100.00;93185.47;2114148;28;20051;-83
2024/03/20 03:03:37;;;;;;;2.00;1.75;;;;;;;2.98;100.00;93184.03;2105678;28;20077;-85
2024/03/20 03:04:38;;;;;;;3.47;1.55;;;;;;;3.00;100.00;93197.66;2088847;28;20062;-83
2024/03/20 03:05:39;;;;;;;1.88;1.65;;;;;;;3.01;100.00;93187.84;2097270;28;20039;-82
2024/03/20 03:06:40;;;;;;;3.85;1.60;;;;;;;2.99;100.00;93195.38;2088924;28;20064;-83
2024/03/20 03:07:41;;;;;;;1.83;1.48;;;;;;;2.95;100.00;93189.31;2080619;28;20026;-82
2024/03/20 03:08:42;;;;;;;1.80;1.50;;;;;;;2.98;100.00;93196.47;2088807;28;20115;-84
2024/03/20 03:09:43;;;;;;;1.70;1.45;;;;;;;2.88;100.00;93191.88;2088760;28;20040;-84
2024/03/20 03:10:44;;;;;;;1.67;1.58;;;;;;;2.90;100.00;93187.78;2089124;28;20450;-84
2024/03/20 03:11:45;;;;;;;1.65;1.50;;;;;;;2.89;100.00;93193.41;2088986;28;20029;-84
2024/03/20 03:12:46;;;;;;;1.95;1.75;;;;;;;2.86;100.00;93194.16;2097347;28;20111;-85
2024/03/20 03:13:47;;;;;;;1.67;1.55;;;;;;;2.82;100.00;93186.19;2097279;28;20024;-84
2024/03/20 03:14:48;;;;;;;2.85;1.55;;;;;;;2.81;100.00;93194.44;2097410;28;20056;-84
2024/03/20 03:15:49;;;;;;;2.45;1.92;;;;;;;2.80;100.00;93193.69;2097215;28;20020;-85
2024/03/20 03:16:50;;;;;;;3.10;1.75;;;;;;;2.89;100.00;93196.78;2096512;28;20033;-85
2024/03/20 03:17:54;;;;;;;2.03;1.38;;;;;;;2.85;100.00;93195.25;2097047;28;20051;-83
2024/03/20 03:18:56;;;;;;;1.70;1.60;;;;;;;2.86;100.00;93194.91;2098006;28;20028;-84
2024/03/20 03:19:57;;;;;;;1.63;1.50;;;;;;;2.82;100.00;93190.72;2096987;28;20040;-84
2024/03/20 03:20:59;;;;;;;1.60;1.50;;;;;;;2.79;100.00;93194.81;2105702;28;20028;-83
2024/03/20 03:22:00;;;;;;;1.45;1.35;;;;;;;2.82;100.00;93193.34;2122136;28;20022;-85
2024/03/20 03:23:02;;;;;;;1.92;1.58;;;;;;;2.81;100.00;93197.09;2097203;28;20048;-82
2024/03/20 03:24:04;;;;;;;1.60;1.50;;;;;;;2.89;100.00;93196.03;2105567;28;20605;-83
2024/03/20 03:25:06;;;;;;;1.65;1.40;;;;;;;2.84;100.00;93189.22;2105106;28;20032;-87
2024/03/20 03:26:07;;;;;;;1.98;1.42;;;;;;;2.84;100.00;93197.13;2113855;28;20092;-85
2024/03/20 03:27:08;;;;;;;1.73;1.35;;;;;;;2.88;100.00;93203.19;2105209;28;20129;-83
2024/03/20 03:28:09;;;;;;;1.58;1.48;;;;;;;2.82;100.00;93191.47;2102833;28;20031;-85
2024/03/20 03:29:10;;;;;;;2.42;1.38;;;;;;;2.84;100.00;93191.84;2097073;28;20185;-83
2024/03/20 03:30:11;;;;;;;2.17;1.40;;;;;;;2.69;100.00;93195.50;2088643;28;20028;-85
2024/03/20 03:31:12;;;;;;;1.65;1.40;;;;;;;2.79;100.00;93197.47;2098603;28;20028;-82
2024/03/20 03:32:13;;;;;;;1.35;1.20;;;;;;;2.63;100.00;93195.06;2098625;28;20489;-82
2024/03/20 03:33:14;;;;;;;1.40;1.30;;;;;;;2.68;100.00;93189.47;2098619;28;20026;-85
2024/03/20 03:34:15;;;;;;;1.75;1.65;;;;;;;2.73;100.00;93199.69;2090124;28;20035;-84
2024/03/20 03:35:17;;;;;;;1.92;1.40;;;;;;;2.72;100.00;93194.75;2098669;28;20534;-84
2024/03/20 03:36:18;;;;;;;1.88;1.60;;;;;;;2.79;100.00;93200.09;2090369;28;20103;-83
2024/03/20 03:37:19;;;;;;;2.55;1.50;;;;;;;2.84;100.00;93196.38;2082297;28;20021;-83
2024/03/20 03:38:20;;;;;;;2.03;1.50;;;;;;;2.88;100.00;93192.63;2090635;28;20024;-82
2024/03/20 03:39:21;;;;;;;1.30;1.20;;;;;;;2.87;100.00;93203.56;2102963;28;20031;-81
2024/03/20 03:40:22;;;;;;;1.92;1.30;;;;;;;2.87;100.00;93198.28;2107035;28;20104;-82
2024/03/20 03:41:22;;;;;;;2.85;1.50;;;;;;;2.82;100.00;93201.28;2090522;28;20190;-81
2024/03/20 03:42:23;;;;;;;1.65;1.55;;;;;;;2.69;100.00;93201.53;2106823;28;20020;-81
2024/03/20 03:43:24;;;;;;;2.00;1.55;;;;;;;2.82;100.00;93199.38;2098544;28;20133;-83
2024/03/20 03:44:25;;;;;;;2.55;1.45;;;;;;;2.78;100.00;93202.00;2082206;28;20157;-84
2024/03/20 03:45:26;;;;;;;2.45;1.40;;;;;;;2.76;100.00;93204.22;2098691;28;20416;-87
2024/03/20 03:46:27;;;;;;;1.63;1.38;;;;;;;2.78;100.00;93204.63;2107147;28;20031;-81
2024/03/20 03:47:30;;;;;;;1.35;1.25;;;;;;;2.81;100.00;93199.72;2089360;28;20489;-81
2024/03/20 03:48:31;;;;;;;1.40;1.20;;;;;;;2.70;100.00;93204.94;2098726;28;20024;-84
2024/03/20 03:49:33;;;;;;;2.75;1.30;;;;;;;2.62;100.00;93198.06;2098593;28;20032;-84
2024/03/20 03:50:34;;;;;;;2.45;1.65;;;;;;;2.66;100.00;93204.13;2098612;28;20066;-83
2024/03/20 03:51:35;;;;;;;1.67;1.50;;;;;;;2.74;100.00;93205.72;2098639;28;20035;-81
2024/03/20 03:52:36;;;;;;;1.70;1.30;;;;;;;2.78;100.00;93206.50;2098608;28;20028;-81
2024/03/20 03:53:38;;;;;;;1.40;1.23;;;;;;;2.81;100.00;93211.06;2105882;28;20107;-82
2024/03/20 03:54:39;;;;;;;1.30;1.20;;;;;;;2.82;100.00;93196.75;2098474;28;20024;-82
2024/03/20 03:55:40;;;;;;;2.35;1.25;;;;;;;2.84;100.00;93204.28;2090155;28;20944;-83
2024/03/20 03:56:41;;;;;;;2.05;1.45;;;;;;;2.64;100.00;93203.75;2104359;28;20032;-83
2024/03/20 03:57:42;;;;;;;1.70;1.30;;;;;;;2.62;100.00;93206.72;2107679;28;20062;-82
2024/03/20 03:58:43;;;;;;;2.10;1.33;;;;;;;2.73;100.00;93206.84;2090117;28;20040;-84
2024/03/20 03:59:44;;;;;;;1.63;1.40;;;;;;;2.68;100.00;93202.66;2098326;28;20059;-81
2024/03/20 04:00:45;;;;;;;3.60;1.63;;;;;;;2.72;100.00;93210.59;2098135;28;20574;-83
2024/03/20 04:01:47;;;;;;;1.63;1.40;;;;;;;2.74;100.00;93205.72;2097236;28;20028;-81
2024/03/20 04:02:48;;;;;;;1.50;1.20;;;;;;;2.80;100.00;93214.06;2098454;28;20066;-84
2024/03/20 04:03:49;;;;;;;1.20;1.10;;;;;;;2.76;100.00;93211.38;2098439;28;20117;-83
2024/03/20 04:04:50;;;;;;;1.40;1.30;;;;;;;2.68;100.00;93207.94;2090229;28;20064;-82
2024/03/20 04:05:56;;;;;;;1.40;1.30;;;;;;;2.64;100.00;93212.41;2098304;28;20016;-82
2024/03/20 04:06:57;;;;;;;2.30;1.40;;;;;;;2.71;100.00;93206.44;2098994;28;20035;-83
2024/03/20 04:07:58;;;;;;;1.50;1.40;;;;;;;2.70;100.00;93210.97;2098401;28;20082;-82
2024/03/20 04:08:59;;;;;;;1.67;1.52;;;;;;;2.61;100.00;93209.75;2098343;28;20354;-82
2024/03/20 04:10:01;;;;;;;1.85;1.40;;;;;;;2.53;100.00;93212.31;2090184;28;20021;-84
2024/03/20 04:11:02;;;;;;;1.15;1.05;;;;;;;2.65;100.00;93203.38;2081988;28;20025;-84
2024/03/20 04:12:04;;;;;;;2.05;1.52;;;;;;;2.58;100.00;93210.47;2090462;28;20378;-82
2024/03/20 04:13:05;;;;;;;4.22;1.50;;;;;;;2.52;100.00;93210.78;2092507;28;20029;-83
2024/03/20 04:14:08;;;;;;;2.63;1.30;;;;;;;2.59;100.00;93206.69;2098241;28;20027;-83
2024/03/20 04:15:09;;;;;;;1.67;1.10;;;;;;;2.64;100.00;93206.38;2098630;28;20034;-81
2024/03/20 04:16:10;;;;;;;1.67;1.38;;;;;;;2.64;100.00;93209.03;2106698;28;20086;-82
2024/03/20 04:17:11;;;;;;;1.65;1.55;;;;;;;2.66;100.00;93206.78;2105844;28;20047;-84
2024/03/20 04:18:12;;;;;;;1.88;1.38;;;;;;;2.69;100.00;93209.44;2089941;28;20024;-84
2024/03/20 04:19:24;;;;;;;1.83;1.40;;;;;;;2.67;100.00;93211.69;2098341;28;20020;-84
2024/03/20 04:20:27;;;;;;;5.90;1.40;;;;;;;2.62;100.00;93217.28;2099773;28;20028;-83
2024/03/20 04:21:28;;;;;;;1.38;1.27;;;;;;;2.71;100.00;93209.84;2105614;28;20553;-82
2024/03/20 04:22:29;;;;;;;1.48;1.27;;;;;;;2.58;100.00;93205.94;2098321;28;20125;-82
2024/03/20 04:23:30;;;;;;;4.38;1.33;;;;;;;2.57;100.00;93208.94;2106426;28;20024;-81
2024/03/20 04:24:31;;;;;;;3.42;1.55;;;;;;;2.62;100.00;93204.09;2106432;28;20073;-83
2024/03/20 04:25:32;;;;;;;1.88;1.20;;;;;;;2.67;100.00;93210.91;2098029;28;20028;-83
2024/03/20 04:26:33;;;;;;;2.10;1.20;;;;;;;2.75;100.00;93210.63;2102476;28;20035;-81
2024/03/20 04:27:38;;;;;;;1.95;1.23;;;;;;;2.69;100.00;93206.81;2106543;28;20028;-81
2024/03/20 04:28:39;;;;;;;1.27;1.15;;;;;;;2.56;100.00;93208.19;2120607;27;20031;-82
2024/03/20 04:29:40;;;;;;;2.97;1.30;;;;;;;2.61;100.00;93212.38;2115015;28;20099;-82
2024/03/20 04:30:41;;;;;;;1.33;1.23;;;;;;;2.61;100.00;93205.22;2106246;28;20023;-81
2024/03/20 04:31:42;;;;;;;1.23;1.13;;;;;;;2.69;100.00;93206.81;2089881;28;20029;-82
2024/03/20 04:32:43;;;;;;;2.22;1.52;;;;;;;2.80;100.00;93204.25;2098377;28;20032;-83
2024/03/20 04:33:44;;;;;;;1.38;1.23;;;;;;;2.73;100.00;93198.94;2106683;28;20016;-81
2024/03/20 04:34:45;;;;;;;2.85;1.40;;;;;;;2.69;100.00;93203.41;2114883;28;20026;-81
2024/03/20 04:35:46;;;;;;;1.50;1.40;;;;;;;2.57;100.00;93204.44;2098180;28;20028;-82
2024/03/20 04:36:48;;;;;;;1.40;1.30;;;;;;;2.61;100.00;93204.47;2106697;28;20069;-84
2024/03/20 04:37:49;;;;;;;3.03;1.30;;;;;;;2.60;100.00;93209.00;2106479;28;20445;-80
2024/03/20 04:38:50;;;;;;;1.95;1.48;;;;;;;2.58;100.00;93210.47;2098227;28;20086;-85
2024/03/20 04:39:58;;;;;;;2.63;1.40;;;;;;;2.58;100.00;93205.94;2089901;28;20083;-84
2024/03/20 04:40:59;;;;;;;1.60;1.27;;;;;;;2.53;100.00;93206.28;2091701;28;20048;-86
2024/03/20 04:42:03;;;;;;;1.23;1.13;;;;;;;2.50;100.00;93206.97;2090600;28;20490;-85
2024/03/20 04:43:07;;;;;;;3.35;1.45;;;;;;;2.46;100.00;93204.34;2090872;28;20115;-84
2024/03/20 04:44:11;;;;;;;2.60;1.33;;;;;;;2.51;100.00;93208.53;2098952;28;20020;-83
2024/03/20 04:45:12;;;;;;;7.18;1.45;;;;;;;2.43;100.00;93210.31;2106669;28;20024;-84
2024/03/20 04:46:13;;;;;;;2.05;1.40;;;;;;;2.49;100.00;93206.22;2098188;28;20085;-82
2024/03/20 04:47:15;;;;;;;1.98;1.40;;;;;;;2.51;100.00;93217.19;2103889;28;20051;-81
2024/03/20 04:48:16;;;;;;;2.08;1.88;;;;;;;2.45;100.00;93209.97;2098153;28;20023;-83
2024/03/20 04:49:17;;;;;;;1.67;1.58;;;;;;;2.29;100.00;93212.06;2090032;28;20052;-84